Time;durP1;ratioP1;P1;durP2;ratioP2;P2;SDS_P1;SDS_P2;PMS_P1;PMS_P2;Temp;Humidity;BMP_temperature;BMP_pressure;BME280_temperature;BME280_humidity;BME280_pressure;Samples;Min_cycle;Max_cycle;Signal;HPM_P1;HPM_P2
2022/02/15 00:01:06;;;;;;;9.63;5.90;;;24.00;1.00;;;;;;4978691;28;20172;-43
2022/02/15 00:03:32;;;;;;;9.93;6.13;;;23.90;1.00;;;;;;4984693;28;20215;-43
2022/02/15 00:05:58;;;;;;;11.10;6.00;;;24.00;1.00;;;;;;4966771;28;20267;-44
2022/02/15 00:08:24;;;;;;;8.07;6.03;;;24.00;1.00;;;;;;4984512;28;20276;-43
2022/02/15 00:10:51;;;;;;;7.77;6.10;;;24.00;1.00;;;;;;4976511;28;20935;-43
2022/02/15 00:13:17;;;;;;;6.83;5.10;;;24.00;1.00;;;;;;4976100;28;20493;-43
2022/02/15 00:15:43;;;;;;;6.73;5.67;;;24.00;1.00;;;;;;4975953;28;20416;-43
2022/02/15 00:18:09;;;;;;;8.10;5.70;;;24.00;1.00;;;;;;4975732;28;20470;-43
2022/02/15 00:20:35;;;;;;;6.50;5.33;;;24.00;1.00;;;;;;4975899;28;20415;-43
2022/02/15 00:23:01;;;;;;;7.53;6.03;;;24.00;1.00;;;;;;4975938;28;20442;-43
2022/02/15 00:25:26;;;;;;;6.80;5.33;;;24.00;1.00;;;;;;4975277;28;20427;-43
2022/02/15 00:27:53;;;;;;;7.20;5.80;;;24.00;1.00;;;;;;4975842;28;20180;-44
2022/02/15 00:30:19;;;;;;;7.23;5.50;;;24.00;1.00;;;;;;4958164;28;20187;-43
2022/02/15 00:32:45;;;;;;;7.77;5.33;;;24.00;1.00;;;;;;4975677;28;20861;-43
2022/02/15 00:35:12;;;;;;;9.03;5.20;;;23.90;1.00;;;;;;4975682;28;20421;-43
2022/02/15 00:37:38;;;;;;;7.27;5.77;;;24.00;1.00;;;;;;4975839;28;20268;-43
2022/02/15 00:40:06;;;;;;;7.87;5.30;;;24.00;1.00;;;;;;4974090;28;20456;-43
2022/02/15 00:42:31;;;;;;;8.67;5.73;;;24.00;1.00;;;;;;4975831;28;20247;-43
2022/02/15 00:44:57;;;;;;;6.23;5.50;;;24.00;1.00;;;;;;4975451;28;20415;-43
2022/02/15 00:47:23;;;;;;;8.03;5.83;;;24.00;1.00;;;;;;4975606;28;20176;-43
2022/02/15 00:49:48;;;;;;;9.80;6.00;;;24.00;1.00;;;;;;4975286;28;20208;-43
2022/02/15 00:52:14;;;;;;;7.80;5.90;;;24.00;1.00;;;;;;4975443;28;20228;-45
2022/02/15 00:54:39;;;;;;;7.20;5.70;;;24.00;1.00;;;;;;4975193;28;20576;-45
2022/02/15 00:57:05;;;;;;;10.23;5.17;;;23.90;1.00;;;;;;4974040;28;20223;-43
2022/02/15 00:59:31;;;;;;;10.50;5.20;;;23.90;1.00;;;;;;4975164;28;20179;-53
2022/02/15 01:01:57;;;;;;;7.03;4.87;;;24.00;1.00;;;;;;4975159;28;20613;-44
2022/02/15 01:04:22;;;;;;;7.50;5.60;;;23.90;1.00;;;;;;4975325;28;20203;-43
2022/02/15 01:06:48;;;;;;;9.10;5.60;;;23.90;1.00;;;;;;4975808;28;20188;-44
2022/02/15 01:09:13;;;;;;;6.60;5.00;;;23.90;1.00;;;;;;4986375;28;20176;-43
2022/02/15 01:11:39;;;;;;;8.17;5.60;;;23.70;1.00;;;;;;4989708;28;20184;-44
2022/02/15 01:14:05;;;;;;;7.60;5.47;;;23.90;1.00;;;;;;4991883;28;20204;-43
2022/02/15 01:16:31;;;;;;;7.83;5.17;;;23.90;1.00;;;;;;4991455;28;20196;-43
2022/02/15 01:18:57;;;;;;;9.93;5.40;;;23.90;1.00;;;;;;4990608;28;20968;-44
2022/02/15 01:21:23;;;;;;;10.80;4.83;;;23.90;1.00;;;;;;4991314;28;20172;-43
2022/02/15 01:23:48;;;;;;;7.50;5.00;;;23.90;1.00;;;;;;4989718;28;20203;-43
2022/02/15 01:26:14;;;;;;;8.87;5.83;;;23.90;1.00;;;;;;4976133;28;20726;-43
2022/02/15 01:28:39;;;;;;;8.90;5.20;;;23.90;1.00;;;;;;4975184;28;20699;-43
2022/02/15 01:31:05;;;;;;;9.40;4.97;;;23.90;1.00;;;;;;4974566;28;20181;-43
2022/02/15 01:33:31;;;;;;;11.30;5.50;;;23.90;1.00;;;;;;4974875;28;20215;-42
2022/02/15 01:35:59;;;;;;;12.17;5.80;;;23.90;1.00;;;;;;4975026;28;20185;-43
2022/02/15 01:38:24;;;;;;;9.30;5.30;;;23.90;1.00;;;;;;4974122;28;20432;-43
2022/02/15 01:40:50;;;;;;;12.83;5.00;;;23.90;1.00;;;;;;4974589;28;20487;-43
2022/02/15 01:43:16;;;;;;;5.90;4.47;;;23.90;1.00;;;;;;4976374;28;20680;-43
2022/02/15 01:45:41;;;;;;;9.53;5.90;;;23.90;1.00;;;;;;4975360;28;20271;-43
2022/02/15 01:48:08;;;;;;;6.23;4.27;;;23.90;1.00;;;;;;4974483;28;20188;-43
2022/02/15 01:50:34;;;;;;;6.53;4.90;;;23.80;1.00;;;;;;4976756;28;20238;-43
2022/02/15 01:53:00;;;;;;;8.70;5.77;;;23.90;1.00;;;;;;4974196;28;20558;-43
2022/02/15 01:55:26;;;;;;;5.40;4.77;;;23.80;1.00;;;;;;4974076;28;20181;-43
2022/02/15 01:57:52;;;;;;;8.10;5.33;;;23.80;1.00;;;;;;4974139;28;20176;-43
2022/02/15 02:00:20;;;;;;;6.23;4.80;;;23.80;1.00;;;;;;4973710;28;20432;-43
2022/02/15 02:02:47;;;;;;;6.90;4.33;;;23.80;1.00;;;;;;4974049;28;20290;-43
2022/02/15 02:07:58;;;;;;;6.70;5.10;;;23.80;1.00;;;;;;4974238;28;20498;-43
2022/02/15 02:10:24;;;;;;;9.67;5.47;;;23.80;1.00;;;;;;4973626;28;20454;-43
2022/02/15 02:12:49;;;;;;;7.50;5.60;;;23.80;1.00;;;;;;4973704;28;20978;-43
2022/02/15 02:15:21;;;;;;;9.87;5.07;;;23.80;1.00;;;;;;4973863;28;20172;-43
2022/02/15 02:17:48;;;;;;;8.40;4.87;;;23.80;1.00;;;;;;4973620;28;20598;-43
2022/02/15 02:20:15;;;;;;;6.17;4.37;;;23.80;1.00;;;;;;4973970;28;20424;-43
2022/02/15 02:22:41;;;;;;;8.40;4.73;;;23.80;1.00;;;;;;4973832;28;20451;-43
2022/02/15 02:25:11;;;;;;;9.03;5.23;;;23.80;1.00;;;;;;4974019;28;20503;-43
2022/02/15 02:27:37;;;;;;;5.40;4.43;;;23.80;1.00;;;;;;4973760;28;20424;-43
2022/02/15 02:30:04;;;;;;;6.13;4.40;;;23.80;1.00;;;;;;4973208;28;20418;-42
2022/02/15 02:32:31;;;;;;;8.53;5.10;;;23.80;1.00;;;;;;4956553;28;20972;-42
2022/02/15 02:35:01;;;;;;;7.47;5.20;;;23.80;1.00;;;;;;4973983;28;20471;-43
2022/02/15 02:37:28;;;;;;;8.60;4.40;;;23.80;1.00;;;;;;4956768;28;20818;-43
2022/02/15 02:39:55;;;;;;;6.67;4.60;;;23.80;1.00;;;;;;4973407;28;20527;-43
2022/02/15 02:42:27;;;;;;;8.23;4.50;;;23.80;1.00;;;;;;4973637;28;20538;-43
2022/02/15 02:44:56;;;;;;;6.87;4.60;;;23.80;1.00;;;;;;4973454;28;20423;-43
2022/02/15 02:47:22;;;;;;;6.47;4.70;;;23.80;1.00;;;;;;4956172;28;20428;-44
2022/02/15 02:49:48;;;;;;;6.90;5.00;;;23.70;1.00;;;;;;4972913;28;20433;-43
2022/02/15 02:52:14;;;;;;;6.53;4.50;;;23.80;1.00;;;;;;4973275;28;20196;-43
2022/02/15 02:54:42;;;;;;;9.30;4.93;;;23.70;1.00;;;;;;4973243;28;20315;-43
2022/02/15 02:57:08;;;;;;;9.40;4.33;;;23.70;1.00;;;;;;4973076;28;20213;-43
2022/02/15 02:59:34;;;;;;;5.90;4.27;;;23.70;1.00;;;;;;4973174;28;20467;-42
2022/02/15 03:02:00;;;;;;;5.57;4.10;;;23.70;1.00;;;;;;4972850;28;20216;-43
2022/02/15 03:04:26;;;;;;;5.27;4.07;;;23.70;1.00;;;;;;4973362;28;20416;-42
2022/02/15 03:06:52;;;;;;;10.10;4.30;;;23.70;1.00;;;;;;4973039;28;20446;-42
2022/02/15 03:09:18;;;;;;;5.10;4.07;;;23.70;1.00;;;;;;4973095;28;20180;-42
2022/02/15 03:11:43;;;;;;;5.60;4.33;;;23.80;1.00;;;;;;4972750;28;20712;-42
2022/02/15 03:14:09;;;;;;;6.57;4.70;;;23.70;1.00;;;;;;4973058;28;20200;-44
2022/02/15 03:16:35;;;;;;;7.03;5.00;;;23.70;1.00;;;;;;4973134;28;20214;-43
2022/02/15 03:19:01;;;;;;;6.53;4.70;;;23.70;1.00;;;;;;4973193;28;20204;-43
2022/02/15 03:21:27;;;;;;;7.43;4.60;;;23.70;1.00;;;;;;4973053;28;20712;-43
2022/02/15 03:23:53;;;;;;;5.17;4.40;;;23.70;1.00;;;;;;4973161;28;20895;-43
2022/02/15 03:26:19;;;;;;;5.17;4.23;;;23.70;1.00;;;;;;4972986;28;20424;-43
2022/02/15 03:28:45;;;;;;;5.47;4.47;;;23.70;1.00;;;;;;4973182;28;20793;-43
2022/02/15 03:31:11;;;;;;;7.13;4.37;;;23.70;1.00;;;;;;4973103;28;20424;-43
2022/02/15 03:33:37;;;;;;;5.67;4.50;;;23.70;1.00;;;;;;4973002;28;20212;-43
2022/02/15 03:36:04;;;;;;;6.07;4.10;;;23.70;1.00;;;;;;4975805;28;20176;-47
2022/02/15 03:38:30;;;;;;;6.17;4.40;;;23.60;1.00;;;;;;4975871;28;20240;-43
2022/02/15 03:43:40;;;;;;;6.17;4.23;;;23.70;1.00;;;;;;4973814;28;20824;-43
2022/02/15 03:46:05;;;;;;;4.40;3.87;;;23.70;1.00;;;;;;4972936;28;20432;-43
2022/02/15 03:48:31;;;;;;;4.43;4.00;;;23.70;1.00;;;;;;4972782;28;20617;-43
2022/02/15 03:50:57;;;;;;;5.83;4.00;;;23.70;1.00;;;;;;4972433;28;20786;-43
2022/02/15 03:53:23;;;;;;;8.33;4.50;;;23.70;1.00;;;;;;4972337;28;20624;-47
2022/02/15 03:55:49;;;;;;;5.90;4.20;;;23.60;1.00;;;;;;4972750;28;20416;-43
2022/02/15 03:58:15;;;;;;;4.90;4.00;;;23.70;1.00;;;;;;4972921;28;20482;-43
2022/02/15 04:00:41;;;;;;;6.03;3.93;;;23.70;1.00;;;;;;4973471;28;20427;-43
2022/02/15 04:03:08;;;;;;;6.87;4.03;;;23.70;1.00;;;;;;5010979;23;20583;-51
2022/02/15 04:05:33;;;;;;;6.47;4.27;;;23.50;1.00;;;;;;5037663;28;20413;-51
2022/02/15 04:07:59;;;;;;;4.80;4.07;;;23.50;1.00;;;;;;5037787;28;20415;-51
2022/02/15 04:10:26;;;;;;;5.50;3.70;;;23.70;1.00;;;;;;5036818;28;20177;-51
2022/02/15 04:12:52;;;;;;;5.67;4.20;;;23.70;1.00;;;;;;5037455;28;20467;-51
2022/02/15 04:15:19;;;;;;;5.67;4.10;;;23.70;1.00;;;;;;5037243;28;20417;-51
2022/02/15 04:17:45;;;;;;;5.77;3.83;;;23.70;1.00;;;;;;5037031;28;20174;-51
2022/02/15 04:20:13;;;;;;;6.97;4.00;;;23.60;1.00;;;;;;5037110;28;20501;-51
2022/02/15 04:22:40;;;;;;;6.90;4.27;;;23.60;1.00;;;;;;5037590;28;20425;-51
2022/02/15 04:25:07;;;;;;;4.37;3.80;;;23.60;1.00;;;;;;5037076;28;20425;-51
2022/02/15 04:27:32;;;;;;;10.63;4.03;;;23.60;1.00;;;;;;5037464;28;20420;-51
2022/02/15 04:29:58;;;;;;;5.90;4.40;;;23.60;1.00;;;;;;5036210;28;20482;-51
2022/02/15 04:32:24;;;;;;;3.97;3.40;;;23.60;1.00;;;;;;5036846;28;20241;-51
2022/02/15 04:34:50;;;;;;;4.73;3.30;;;23.60;1.00;;;;;;5019013;28;20464;-51
2022/02/15 04:37:16;;;;;;;7.83;4.00;;;23.60;1.00;;;;;;5037170;28;20586;-51
2022/02/15 04:39:42;;;;;;;4.23;3.77;;;23.60;1.00;;;;;;5037139;28;20555;-51
2022/02/15 04:42:08;;;;;;;4.17;3.77;;;23.60;1.00;;;;;;5037209;28;20179;-51
2022/02/15 04:44:33;;;;;;;5.77;4.20;;;23.60;1.00;;;;;;5012356;28;20453;-51
2022/02/15 04:46:59;;;;;;;7.33;3.87;;;23.50;1.00;;;;;;5017370;28;20178;-51
2022/02/15 04:49:26;;;;;;;4.20;3.80;;;23.60;1.00;;;;;;5018027;28;20241;-51
2022/02/15 04:51:52;;;;;;;4.10;3.63;;;23.60;1.00;;;;;;5017590;28;20590;-51
2022/02/15 04:54:20;;;;;;;4.20;3.33;;;23.60;1.00;;;;;;5017927;28;20493;-51
2022/02/15 04:56:45;;;;;;;4.80;3.47;;;23.60;1.00;;;;;;5017909;28;20468;-51
2022/02/15 04:59:11;;;;;;;5.70;4.20;;;23.60;1.00;;;;;;5017500;28;20426;-52
2022/02/15 05:01:38;;;;;;;4.40;3.67;;;23.60;1.00;;;;;;5017248;28;20171;-51
2022/02/15 05:04:03;;;;;;;6.20;3.87;;;23.60;1.00;;;;;;5017915;28;20195;-51
2022/02/15 05:06:29;;;;;;;5.13;3.47;;;23.60;1.00;;;;;;5017832;28;20920;-51
2022/02/15 05:08:55;;;;;;;5.00;3.80;;;23.60;1.00;;;;;;5015448;28;20462;-51
2022/02/15 05:11:21;;;;;;;5.50;4.23;;;23.60;1.00;;;;;;5014811;28;20186;-51
2022/02/15 05:13:46;;;;;;;4.13;3.33;;;23.60;1.00;;;;;;5017837;28;20293;-51
2022/02/15 05:16:12;;;;;;;6.17;3.73;;;23.60;1.00;;;;;;5016831;28;20229;-51
2022/02/15 05:18:38;;;;;;;4.60;3.07;;;23.60;1.00;;;;;;4999236;28;20229;-51
2022/02/15 05:21:03;;;;;;;5.80;4.00;;;23.60;1.00;;;;;;4999173;28;20266;-52
2022/02/15 05:23:30;;;;;;;6.67;3.53;;;23.60;1.00;;;;;;5016572;28;20198;-51
2022/02/15 05:25:56;;;;;;;7.40;3.90;;;23.40;1.00;;;;;;5016310;28;20210;-51
2022/02/15 05:28:23;;;;;;;4.93;3.30;;;23.60;1.00;;;;;;5017009;28;20468;-51
2022/02/15 05:30:48;;;;;;;5.53;3.30;;;23.60;1.00;;;;;;5015785;28;20432;-51
2022/02/15 05:33:14;;;;;;;6.10;3.63;;;23.50;1.00;;;;;;5016705;28;20968;-52
2022/02/15 05:35:40;;;;;;;11.63;3.27;;;23.60;1.00;;;;;;5016951;28;20217;-51
2022/02/15 05:38:06;;;;;;;5.30;3.67;;;23.60;1.00;;;;;;4998454;28;20175;-52
2022/02/15 05:40:32;;;;;;;10.53;4.33;;;23.50;1.00;;;;;;5016497;28;20951;-51
2022/02/15 05:42:58;;;;;;;6.10;3.63;;;23.50;1.00;;;;;;4999334;28;20179;-51
2022/02/15 05:45:24;;;;;;;5.43;3.90;;;23.50;1.00;;;;;;5016188;28;20202;-51
2022/02/15 05:47:50;;;;;;;6.00;3.43;;;23.60;1.00;;;;;;5016964;28;20514;-51
2022/02/15 05:53:00;;;;;;;5.43;3.37;;;23.50;1.00;;;;;;5015802;28;20440;-51
2022/02/15 05:55:26;;;;;;;4.40;3.60;;;23.50;1.00;;;;;;5016156;28;20418;-51
2022/02/15 05:57:51;;;;;;;4.37;3.50;;;23.50;1.00;;;;;;5016261;28;20185;-51
2022/02/15 06:00:18;;;;;;;4.37;3.13;;;23.50;1.00;;;;;;5016236;28;20418;-51
2022/02/15 06:02:45;;;;;;;4.03;3.17;;;23.40;1.00;;;;;;5016286;28;20562;-50
2022/02/15 06:05:11;;;;;;;4.03;3.20;;;23.50;1.00;;;;;;5016096;28;20484;-51
2022/02/15 06:07:37;;;;;;;4.30;3.23;;;23.50;1.00;;;;;;5015244;28;20489;-51
2022/02/15 06:10:03;;;;;;;4.07;3.03;;;23.50;1.00;;;;;;5015030;28;20437;-51
2022/02/15 06:12:29;;;;;;;4.80;3.60;;;23.50;1.00;;;;;;5014747;28;20179;-51
2022/02/15 06:14:54;;;;;;;4.33;3.57;;;23.50;1.00;;;;;;5016073;28;20500;-51
2022/02/15 06:17:20;;;;;;;5.10;3.37;;;23.50;1.00;;;;;;5016019;28;20186;-51
2022/02/15 06:19:46;;;;;;;5.37;3.57;;;23.50;1.00;;;;;;5015499;28;20178;-51
2022/02/15 06:22:12;;;;;;;3.83;3.43;;;23.50;1.00;;;;;;5015549;28;20174;-51
2022/02/15 06:24:37;;;;;;;7.10;3.60;;;23.50;1.00;;;;;;5015855;28;20638;-51
2022/02/15 06:27:03;;;;;;;5.00;3.80;;;23.50;1.00;;;;;;5014614;28;20183;-52
2022/02/15 06:29:33;;;;;;;5.30;3.47;;;23.50;1.00;;;;;;5016564;28;20179;-51
2022/02/15 06:31:59;;;;;;;6.63;3.87;;;23.50;1.00;;;;;;5015274;28;20433;-51
2022/02/15 06:34:25;;;;;;;4.93;3.13;;;23.50;1.00;;;;;;5015858;28;20496;-51
2022/02/15 06:36:52;;;;;;;11.07;3.50;;;23.50;1.00;;;;;;5015785;28;20611;-51
2022/02/15 06:39:18;;;;;;;4.87;3.43;;;23.50;1.00;;;;;;5015460;28;20468;-51
2022/02/15 06:41:44;;;;;;;5.77;4.00;;;23.50;1.00;;;;;;5014009;28;20505;-51
2022/02/15 06:44:10;;;;;;;6.53;3.50;;;23.50;1.00;;;;;;5014392;28;20889;-51
2022/02/15 06:46:37;;;;;;;3.70;3.17;;;23.50;1.00;;;;;;5016311;28;20175;-51
2022/02/15 06:49:04;;;;;;;4.83;2.50;;;23.40;1.00;;;;;;5015979;28;20183;-51
2022/02/15 06:51:30;;;;;;;4.53;3.03;;;23.50;1.00;;;;;;5014770;28;20768;-51
2022/02/15 06:53:55;;;;;;;9.60;3.40;;;23.50;1.00;;;;;;5015884;28;20464;-51
2022/02/15 06:56:21;;;;;;;3.80;3.20;;;23.50;1.00;;;;;;5016668;28;20179;-51
2022/02/15 06:58:47;;;;;;;4.20;3.30;;;23.50;1.00;;;;;;5015780;28;20190;-51
2022/02/15 07:01:13;;;;;;;5.60;3.10;;;23.30;1.00;;;;;;4998512;28;20476;-51
2022/02/15 07:03:38;;;;;;;4.90;2.93;;;23.50;1.00;;;;;;5016139;28;20202;-51
2022/02/15 07:06:05;;;;;;;9.23;3.80;;;23.50;1.00;;;;;;5009827;28;20183;-52
2022/02/15 07:08:30;;;;;;;4.77;3.33;;;23.50;1.00;;;;;;5015598;28;20197;-52
2022/02/15 07:10:57;;;;;;;10.50;3.43;;;23.30;1.00;;;;;;5015680;28;20427;-52
2022/02/15 07:13:25;;;;;;;9.40;3.10;;;23.50;1.00;;;;;;5015947;28;20574;-52
2022/02/15 07:15:51;;;;;;;6.93;3.07;;;23.60;1.00;;;;;;4998391;28;20421;-51
2022/02/15 07:18:17;;;;;;;10.80;3.13;;;23.60;1.00;;;;;;5015462;28;20434;-54
2022/02/15 07:20:43;;;;;;;5.07;3.20;;;23.60;1.00;;;;;;5015554;28;20425;-52
2022/02/15 07:23:10;;;;;;;6.47;3.60;;;23.60;1.00;;;;;;5015652;28;20472;-51
2022/02/15 07:25:37;;;;;;;5.47;2.90;;;23.60;1.00;;;;;;5014302;28;20175;-52
2022/02/15 07:28:03;;;;;;;5.23;3.13;;;23.80;1.00;;;;;;5008795;28;20434;-52
2022/02/15 07:30:29;;;;;;;10.37;3.43;;;23.70;1.00;;;;;;4997549;28;20422;-50
2022/02/15 07:32:57;;;;;;;5.63;3.17;;;23.70;1.00;;;;;;5016222;28;20426;-53
2022/02/15 07:35:22;;;;;;;6.50;2.93;;;23.80;1.00;;;;;;5016067;28;20421;-53
2022/02/15 07:37:52;;;;;;;7.93;3.70;;;23.80;1.00;;;;;;5001898;28;20429;-53
2022/02/15 07:40:21;;;;;;;8.63;4.27;;;23.80;1.00;;;;;;5019201;28;20167;-55
2022/02/15 07:42:48;;;;;;;11.90;4.70;;;23.70;1.30;;;;;;5019979;28;20764;-54
2022/02/15 07:45:18;;;;;;;14.77;5.17;;;23.70;1.30;;;;;;5019655;28;20453;-52
2022/02/15 07:47:51;;;;;;;14.33;4.60;;;23.80;1.50;;;;;;5004122;28;20487;-53
2022/02/15 07:50:22;;;;;;;14.93;5.43;;;23.80;1.20;;;;;;4999609;28;20745;-53
2022/02/15 07:52:50;;;;;;;15.77;6.23;;;23.90;1.00;;;;;;4983135;28;20894;-53
2022/02/15 07:55:17;;;;;;;16.67;6.43;;;23.90;1.00;;;;;;5000637;28;20469;-53
2022/02/15 07:57:44;;;;;;;15.33;5.70;;;23.90;1.20;;;;;;5000110;28;20926;-53
2022/02/15 08:00:10;;;;;;;15.30;6.27;;;23.90;1.10;;;;;;4986638;28;20423;-53
2022/02/15 08:02:39;;;;;;;17.57;6.17;;;23.90;1.40;;;;;;4980685;28;20465;-54
2022/02/15 08:05:05;;;;;;;21.27;5.30;;;23.90;1.00;;;;;;4999450;28;20423;-53
2022/02/15 08:07:32;;;;;;;15.90;5.70;;;23.80;1.30;;;;;;4982507;28;20474;-52
2022/02/15 08:09:59;;;;;;;19.40;5.17;;;23.80;1.70;;;;;;4998035;28;20187;-50
2022/02/15 08:12:25;;;;;;;13.33;5.27;;;23.80;1.70;;;;;;4998942;28;20477;-53
2022/02/15 08:14:51;;;;;;;18.97;5.20;;;23.90;2.10;;;;;;4999517;28;21042;-53
2022/02/15 08:17:17;;;;;;;20.87;5.17;;;23.90;2.10;;;;;;4999792;28;20454;-54
2022/02/15 08:19:42;;;;;;;18.37;6.80;;;23.90;2.90;;;;;;4999571;28;20188;-52
2022/02/15 08:22:08;;;;;;;11.30;4.80;;;24.00;2.50;;;;;;4999623;28;20188;-52
2022/02/15 08:24:34;;;;;;;13.60;5.57;;;24.00;2.10;;;;;;4999123;28;20180;-52
2022/02/15 08:27:03;;;;;;;16.40;4.57;;;24.00;2.30;;;;;;4998911;28;20429;-54
2022/02/15 08:29:29;;;;;;;16.80;5.60;;;23.90;2.20;;;;;;4981443;28;20442;-53
2022/02/15 08:31:55;;;;;;;16.00;4.93;;;24.00;2.30;;;;;;4998271;28;20513;-53
2022/02/15 08:34:21;;;;;;;15.90;5.10;;;24.00;2.40;;;;;;4998565;28;21147;-53
2022/02/15 08:36:46;;;;;;;15.40;5.87;;;24.10;2.30;;;;;;4999466;28;20419;-53
2022/02/15 08:39:15;;;;;;;17.00;5.50;;;24.10;2.00;;;;;;4999519;28;20186;-55
2022/02/15 08:41:41;;;;;;;16.23;5.23;;;24.10;1.70;;;;;;4998703;28;20254;-53
2022/02/15 08:44:07;;;;;;;13.83;4.50;;;24.10;1.90;;;;;;4998837;28;20497;-53
2022/02/15 08:46:33;;;;;;;13.57;4.43;;;24.10;1.70;;;;;;4981709;28;20436;-53
2022/02/15 08:48:58;;;;;;;12.00;4.87;;;24.00;1.70;;;;;;4999309;28;20218;-53
2022/02/15 08:51:24;;;;;;;12.20;4.63;;;24.10;1.80;;;;;;4998267;28;20505;-53
2022/02/15 08:53:51;;;;;;;11.77;4.67;;;23.90;1.60;;;;;;4980791;28;20200;-52
2022/02/15 08:56:20;;;;;;;13.60;4.77;;;24.00;1.50;;;;;;4999488;28;20183;-52
2022/02/15 08:58:47;;;;;;;11.93;4.37;;;24.00;1.70;;;;;;4981667;28;20423;-52
2022/02/15 09:01:13;;;;;;;10.40;4.67;;;24.00;1.70;;;;;;4980670;28;20454;-52
2022/02/15 09:03:39;;;;;;;8.13;4.20;;;24.00;1.70;;;;;;4998887;28;20936;-58
2022/02/15 09:06:05;;;;;;;16.13;4.60;;;24.00;1.90;;;;;;4996875;28;20477;-49
2022/02/15 09:08:30;;;;;;;10.80;3.60;;;24.50;3.00;;;;;;4997458;28;20431;-47
2022/02/15 09:10:56;;;;;;;12.47;4.87;;;24.80;1.70;;;;;;4996884;28;20186;-48
2022/02/15 09:13:22;;;;;;;10.40;4.00;;;25.00;1.00;;;;;;4996315;28;20538;-53
2022/02/15 09:15:47;;;;;;;10.50;3.53;;;25.00;1.00;;;;;;4994886;28;20194;-54
2022/02/15 09:18:13;;;;;;;9.60;4.57;;;25.00;1.00;;;;;;4994848;28;20179;-55
2022/02/15 09:20:41;;;;;;;8.70;4.33;;;25.00;1.00;;;;;;4994891;28;20184;-54
2022/02/15 09:23:07;;;;;;;11.70;3.73;;;24.90;1.00;;;;;;4996045;28;20175;-55
2022/02/15 09:25:32;;;;;;;10.87;5.43;;;24.90;1.00;;;;;;4996567;28;20543;-55
2022/02/15 09:27:58;;;;;;;17.70;6.30;;;24.90;1.00;;;;;;4996456;28;20450;-54
2022/02/15 09:30:25;;;;;;;17.00;7.23;;;24.60;1.00;;;;;;4978921;28;20211;-54
2022/02/15 09:32:51;;;;;;;23.20;8.57;;;25.00;1.00;;;;;;4996450;28;20446;-54
2022/02/15 09:35:16;;;;;;;22.63;9.77;;;25.00;1.00;;;;;;4995855;28;20941;-54
2022/02/15 09:37:45;;;;;;;21.23;8.97;;;24.90;1.00;;;;;;4996259;28;20179;-54
2022/02/15 09:40:11;;;;;;;19.97;8.63;;;25.00;1.00;;;;;;4996815;28;20186;-56
2022/02/15 09:42:39;;;;;;;17.70;8.90;;;25.00;1.00;;;;;;4996686;28;20419;-55
2022/02/15 09:45:10;;;;;;;19.00;8.80;;;25.00;1.00;;;;;;4996453;28;20451;-53
2022/02/15 09:47:38;;;;;;;19.40;8.60;;;25.00;1.00;;;;;;4996531;28;20454;-56
2022/02/15 09:50:07;;;;;;;19.23;8.50;;;25.00;1.00;;;;;;4995419;28;21512;-55
2022/02/15 09:52:34;;;;;;;15.27;7.10;;;25.00;1.00;;;;;;4995946;28;20929;-54
2022/02/15 09:55:00;;;;;;;22.27;7.87;;;25.00;1.00;;;;;;4995569;28;20485;-55
2022/02/15 09:57:26;;;;;;;15.90;7.20;;;24.70;1.00;;;;;;4995305;28;20965;-54
2022/02/15 09:59:54;;;;;;;21.00;7.57;;;25.10;1.00;;;;;;4994812;28;20426;-54
2022/02/15 10:02:34;;;;;;;12.77;6.93;;;25.00;1.00;;;;;;4995599;28;20442;-57
2022/02/15 10:05:01;;;;;;;23.20;8.53;;;24.90;1.00;;;;;;4995805;28;20885;-54
2022/02/15 10:07:28;;;;;;;19.92;7.00;;;25.00;1.00;;;;;;4993650;28;20433;-53
2022/02/15 10:09:55;;;;;;;20.50;8.65;;;25.00;1.00;;;;;;4977273;28;20488;-56
2022/02/15 10:12:24;;;;;;;17.57;9.33;;;25.00;1.00;;;;;;4978067;28;20211;-58
2022/02/15 10:14:52;;;;;;;16.70;7.87;;;24.80;1.00;;;;;;4995434;28;20486;-55
2022/02/15 10:17:19;;;;;;;21.23;8.70;;;25.10;1.00;;;;;;4978059;28;20905;-55
2022/02/15 10:19:48;;;;;;;20.67;7.77;;;25.00;1.00;;;;;;4993583;28;20419;-56
2022/02/15 10:22:17;;;;;;;16.97;8.40;;;25.10;1.00;;;;;;4995463;28;20786;-56
2022/02/15 10:24:58;;;;;;;15.27;7.10;;;25.10;1.00;;;;;;4996067;28;20426;-56
2022/02/15 10:27:28;;;;;;;16.73;8.23;;;25.10;1.00;;;;;;4995737;28;20431;-58
2022/02/15 10:29:56;;;;;;;14.03;7.63;;;25.10;1.00;;;;;;4995245;28;20430;-56
2022/02/15 10:32:22;;;;;;;15.50;6.90;;;25.10;1.00;;;;;;4995749;28;20423;-54
2022/02/15 10:34:53;;;;;;;26.50;7.23;;;25.10;1.00;;;;;;4994941;28;21233;-56
2022/02/15 10:37:19;;;;;;;17.13;6.80;;;25.00;1.00;;;;;;4996231;28;20395;-58
2022/02/15 10:39:55;;;;;;;14.73;7.10;;;25.10;1.00;;;;;;4999064;28;20458;-58
2022/02/15 10:42:24;;;;;;;12.83;6.43;;;25.10;1.00;;;;;;4998604;28;20812;-54
2022/02/15 10:45:08;;;;;;;13.23;7.40;;;25.10;1.00;;;;;;4997509;28;20452;-59
2022/02/15 10:47:38;;;;;;;18.90;7.60;;;25.10;1.00;;;;;;5014864;28;21140;-55
2022/02/15 10:50:09;;;;;;;16.87;7.50;;;25.10;1.20;;;;;;5013852;28;20506;-55
2022/02/15 10:52:36;;;;;;;15.93;6.37;;;25.10;1.40;;;;;;5013241;28;20939;-58
2022/02/15 10:55:03;;;;;;;11.60;5.73;;;25.10;1.50;;;;;;5013650;28;20513;-57
2022/02/15 10:57:32;;;;;;;13.63;6.97;;;25.10;1.50;;;;;;5015268;28;20422;-58
2022/02/15 11:00:03;;;;;;;15.87;6.70;;;25.10;2.10;;;;;;5014470;28;20854;-57
2022/02/15 11:02:30;;;;;;;14.10;6.80;;;25.00;2.80;;;;;;5015419;28;20425;-57
2022/02/15 11:05:02;;;;;;;15.10;5.93;;;24.90;2.90;;;;;;4997778;28;20422;-57
2022/02/15 11:07:31;;;;;;;11.37;5.73;;;24.80;2.70;;;;;;4995824;28;20949;-57
2022/02/15 11:10:29;;;;;;;10.90;5.93;;;24.80;2.90;;;;;;4978689;28;20463;-57
2022/02/15 11:12:58;;;;;;;14.00;5.67;;;24.80;3.00;;;;;;4999049;28;20977;-56
2022/02/15 11:15:34;;;;;;;11.50;5.70;;;24.80;3.10;;;;;;4982737;28;20458;-57
2022/02/15 11:18:05;;;;;;;11.70;6.30;;;25.00;3.40;;;;;;4998798;28;21108;-58
2022/02/15 11:20:52;;;;;;;13.40;5.33;;;25.00;3.80;;;;;;4981308;28;20410;-58
2022/02/15 11:23:20;;;;;;;9.87;4.90;;;24.90;3.40;;;;;;4998301;28;20846;-58
2022/02/15 11:25:49;;;;;;;11.17;5.30;;;24.90;3.60;;;;;;4982035;28;20447;-57
2022/02/15 11:28:19;;;;;;;8.73;4.73;;;24.90;3.50;;;;;;4998959;28;20940;-57
2022/02/15 11:30:55;;;;;;;12.00;5.80;;;25.00;3.60;;;;;;4999754;28;20751;-57
2022/02/15 11:33:36;;;;;;;9.37;4.30;;;25.00;3.30;;;;;;4981027;28;20465;-57
2022/02/15 11:36:16;;;;;;;8.60;5.00;;;25.00;3.60;;;;;;4999690;28;20944;-55
2022/02/15 11:39:00;;;;;;;12.73;5.37;;;25.00;3.40;;;;;;4999112;28;20418;-57
2022/02/15 11:41:29;;;;;;;10.80;5.40;;;24.90;4.00;;;;;;4980625;28;20411;-57
2022/02/15 11:44:03;;;;;;;10.47;5.03;;;24.80;3.60;;;;;;4998886;28;20430;-57
2022/02/15 11:46:43;;;;;;;15.00;5.13;;;24.80;3.50;;;;;;4981634;28;20418;-56
2022/02/15 11:49:13;;;;;;;12.80;5.20;;;24.80;3.60;;;;;;4999455;28;20395;-56
2022/02/15 11:51:41;;;;;;;8.43;5.40;;;24.80;3.30;;;;;;4980624;28;20790;-57
2022/02/15 11:54:13;;;;;;;8.93;4.93;;;24.80;3.50;;;;;;4998142;28;21089;-57
2022/02/15 11:56:44;;;;;;;9.70;4.80;;;24.80;3.60;;;;;;4998446;28;20425;-58
2022/02/15 11:59:24;;;;;;;10.00;4.90;;;24.90;3.90;;;;;;5003945;28;20494;-58
2022/02/15 12:02:02;;;;;;;30.93;6.07;;;24.90;3.60;;;;;;5018428;28;20217;-55
2022/02/15 12:04:29;;;;;;;10.30;5.37;;;24.90;3.60;;;;;;5016493;28;20429;-56
2022/02/15 12:06:58;;;;;;;11.70;4.60;;;25.00;3.60;;;;;;5017802;28;20484;-57
2022/02/15 12:09:33;;;;;;;12.20;4.50;;;25.00;3.90;;;;;;5019197;28;20501;-56
2022/02/15 12:12:00;;;;;;;7.30;4.43;;;25.00;3.30;;;;;;5017494;28;20406;-56
2022/02/15 12:14:26;;;;;;;6.93;4.47;;;25.10;3.20;;;;;;5017376;28;20864;-56
2022/02/15 12:16:58;;;;;;;9.60;4.70;;;24.90;3.10;;;;;;5015626;28;20428;-56
2022/02/15 12:19:36;;;;;;;10.00;4.37;;;25.00;3.80;;;;;;5016645;28;20418;-56
2022/02/15 12:22:15;;;;;;;14.23;4.83;;;24.90;3.40;;;;;;5015666;28;20922;-56
2022/02/15 12:24:41;;;;;;;11.10;4.80;;;24.90;3.80;;;;;;5017059;28;20425;-57
2022/02/15 12:27:07;;;;;;;13.33;4.90;;;24.90;4.00;;;;;;4999328;28;20432;-54
2022/02/15 12:29:34;;;;;;;8.33;4.40;;;24.90;4.30;;;;;;4999029;28;20182;-54
2022/02/15 12:32:03;;;;;;;8.23;4.30;;;24.90;4.00;;;;;;5015866;28;20433;-54
2022/02/15 12:34:30;;;;;;;10.10;4.87;;;24.90;4.10;;;;;;4984146;28;20465;-54
2022/02/15 12:37:00;;;;;;;8.80;4.07;;;24.90;4.00;;;;;;5017430;28;20952;-54
2022/02/15 12:39:38;;;;;;;9.83;4.70;;;24.90;4.00;;;;;;4998731;28;20414;-54
2022/02/15 12:42:14;;;;;;;8.10;4.03;;;24.80;4.10;;;;;;5015331;28;20500;-55
2022/02/15 12:44:40;;;;;;;11.33;4.43;;;24.80;4.10;;;;;;5015552;28;20600;-54
2022/02/15 12:47:07;;;;;;;8.63;3.53;;;24.70;4.00;;;;;;5016045;28;20454;-54
2022/02/15 12:49:33;;;;;;;9.13;4.20;;;24.80;4.00;;;;;;5016178;28;20938;-53
2022/02/15 12:51:59;;;;;;;10.13;4.00;;;24.80;4.20;;;;;;5015133;28;20410;-54
2022/02/15 12:54:25;;;;;;;5.87;4.17;;;24.80;4.30;;;;;;5015571;28;20195;-54
2022/02/15 12:56:51;;;;;;;8.70;4.37;;;24.70;4.20;;;;;;4997833;28;20468;-54
2022/02/15 12:59:22;;;;;;;6.27;3.93;;;24.70;3.90;;;;;;4998627;28;20762;-57
2022/02/15 13:01:56;;;;;;;12.00;4.03;;;24.70;4.10;;;;;;5015198;28;20413;-54